Mehlville, Missouri
Current Conditions -  °F | °C
As of 1:53 AM on Wednesday 26 Nov 2014 (Local Time) from KCPS Reporting Station
Clear Clear  
Wind Chill: 28°   Ceiling: Unl
Heat Index: 28°   Visibility: 10mi
Dew Point: 24°   Wind: 3mph
Humidity: 85%   Direction: 160°SSE
Pressure: 30.13"   Gusts: NA
Location:  38.51°N, 90.32°W
Report Text: KCPS 260753Z AUTO 16003KT 10SM CLR M02/M04 A3013 RMK AO2 SLP204 T10221044 TSNO
Loading
Personal Weather Stations






























Interactive Weather Map New forecast layout! Learn more

10-Day Weather Forecast

Advertisements
Track Severe Weather on mobile